PTI737 YMML-OPLA
Flight info
| Callsign | PTI737 |
|---|---|
| Flight time | N/A |
| Altitude | 34000 |
| Route | KEPPA3/34 KEPPA Q168 WR T29 CIN A576 ATMAP M635 BLI G464 PNK N875 ENREP N891 IGARI/K0787F340 N891 XONAN/N0423F340 N891 BKK L507 CEA R460 GGC L509 SULOM |
| Aircraft | B737/M-SDE2E3FGHIRWXY/LB1 |
Departure
| Time | 2026-05-04 08:02 |
|---|---|
| Airport | Melbourne Airport (YMML) |
Arrival
| Time | N/A |
|---|---|
| Airport | Allama Iqbal International Airport (OPLA) |
| Time | Latitude | Longitude | Altitude | Speed | Heading |
|---|---|---|---|---|---|
| 2026-05-04 07:14 | -37.66575 | 144.84661 | 403 ft | 0 kts | 347° |
| 2026-05-04 07:43 | -37.66588 | 144.84664 | 400 ft | 4 kts | 347° |
| 2026-05-04 07:44 | -37.66614 | 144.84672 | 398 ft | 4 kts | 345° |
| 2026-05-04 07:44 | -37.66640 | 144.84681 | 399 ft | 4 kts | 347° |
| 2026-05-04 07:44 | -37.66642 | 144.84680 | 399 ft | 4 kts | 322° |
| 2026-05-04 07:44 | -37.66647 | 144.84649 | 395 ft | 1 kts | 81° |
| 2026-05-04 07:45 | -37.66651 | 144.84624 | 395 ft | 4 kts | 81° |
| 2026-05-04 07:45 | -37.66653 | 144.84604 | 395 ft | 0 kts | 81° |
| 2026-05-04 07:49 | -37.66661 | 144.84617 | 397 ft | 2 kts | 160° |
| 2026-05-04 07:49 | -37.66659 | 144.84582 | 397 ft | 8 kts | 282° |
| 2026-05-04 07:50 | -37.66669 | 144.84464 | 397 ft | 20 kts | 262° |
| 2026-05-04 07:50 | -37.66691 | 144.84294 | 393 ft | 19 kts | 259° |
| 2026-05-04 07:50 | -37.66766 | 144.84186 | 392 ft | 19 kts | 171° |
| 2026-05-04 07:50 | -37.66893 | 144.84212 | 388 ft | 19 kts | 171° |
| 2026-05-04 07:51 | -37.66991 | 144.84231 | 385 ft | 12 kts | 174° |
| 2026-05-04 07:51 | -37.67000 | 144.84233 | 385 ft | 0 kts | 172° |
| 2026-05-04 07:51 | -37.67007 | 144.84234 | 385 ft | 6 kts | 172° |
| 2026-05-04 07:52 | -37.67117 | 144.84254 | 382 ft | 23 kts | 172° |
| 2026-05-04 07:52 | -37.67249 | 144.84279 | 380 ft | 18 kts | 171° |
| 2026-05-04 07:52 | -37.67363 | 144.84302 | 378 ft | 15 kts | 174° |
| 2026-05-04 07:52 | -37.67466 | 144.84319 | 375 ft | 15 kts | 172° |
| 2026-05-04 07:53 | -37.67565 | 144.84336 | 372 ft | 14 kts | 171° |
| 2026-05-04 07:54 | -37.68431 | 144.84399 | 344 ft | 16 kts | 214° |
| 2026-05-04 07:55 | -37.68516 | 144.84326 | 338 ft | 12 kts | 224° |
| 2026-05-04 07:55 | -37.68528 | 144.84310 | 334 ft | 0 kts | 230° |
| 2026-05-04 07:57 | -37.68531 | 144.84305 | 340 ft | 5 kts | 232° |
| 2026-05-04 07:58 | -37.68549 | 144.84253 | 336 ft | 7 kts | 256° |
| 2026-05-04 07:58 | -37.68551 | 144.84238 | 338 ft | 0 kts | 261° |
| 2026-05-04 08:00 | -37.68563 | 144.84155 | 347 ft | 15 kts | 260° |
| 2026-05-04 08:00 | -37.68545 | 144.84093 | 346 ft | 0 kts | 355° |
| 2026-05-04 08:02 | -37.65243 | 144.83487 | 1564 ft | 153 kts | 351° |
| 2026-05-04 08:02 | -37.64137 | 144.83320 | 2150 ft | 167 kts | 349° |
| 2026-05-04 08:02 | -37.62972 | 144.83155 | 2799 ft | 174 kts | 346° |
| 2026-05-04 08:03 | -37.61693 | 144.82890 | 3027 ft | 198 kts | 345° |
| 2026-05-04 08:03 | -37.60293 | 144.82596 | 3499 ft | 213 kts | 345° |
| 2026-05-04 08:03 | -37.58724 | 144.82276 | 3779 ft | 239 kts | 346° |
| 2026-05-04 08:03 | -37.57076 | 144.81937 | 4688 ft | 239 kts | 341° |
| 2026-05-04 08:04 | -37.55581 | 144.81096 | 5523 ft | 235 kts | 323° |
| 2026-05-04 08:04 | -37.54283 | 144.79824 | 6282 ft | 239 kts | 317° |
| 2026-05-04 08:04 | -37.53031 | 144.78429 | 7012 ft | 242 kts | 316° |
| 2026-05-04 08:04 | -37.51769 | 144.76993 | 7720 ft | 247 kts | 316° |
| 2026-05-04 08:05 | -37.50489 | 144.75537 | 8478 ft | 249 kts | 316° |
| 2026-05-04 08:05 | -37.49190 | 144.74066 | 9208 ft | 254 kts | 315° |
| 2026-05-04 08:05 | -37.47861 | 144.72567 | 9913 ft | 258 kts | 315° |
| 2026-05-04 08:05 | -37.46503 | 144.71041 | 10412 ft | 270 kts | 315° |
| 2026-05-04 08:06 | -37.45045 | 144.69404 | 10722 ft | 288 kts | 316° |
| 2026-05-04 08:06 | -37.43533 | 144.67714 | 11350 ft | 293 kts | 316° |
| 2026-05-04 08:06 | -37.41997 | 144.66003 | 12063 ft | 296 kts | 316° |
| 2026-05-04 08:06 | -37.40446 | 144.64280 | 12776 ft | 299 kts | 316° |
| 2026-05-04 08:08 | -37.29011 | 144.51612 | 17347 ft | 324 kts | 316° |
| 2026-05-04 08:08 | -37.27312 | 144.49735 | 17972 ft | 327 kts | 316° |
| 2026-05-04 08:10 | -37.13145 | 144.34130 | 22503 ft | 350 kts | 316° |
| 2026-05-04 08:11 | -37.11908 | 144.32771 | 22863 ft | 352 kts | 316° |
| 2026-05-04 08:11 | -37.07567 | 144.28008 | 24046 ft | 357 kts | 317° |
| 2026-05-04 08:11 | -37.06327 | 144.26649 | 24380 ft | 358 kts | 317° |
| 2026-05-04 08:12 | -37.04466 | 144.24610 | 24888 ft | 358 kts | 317° |
| 2026-05-04 08:12 | -37.02591 | 144.22558 | 25354 ft | 359 kts | 316° |
| 2026-05-04 08:12 | -37.00704 | 144.20493 | 25797 ft | 361 kts | 316° |
| 2026-05-04 08:12 | -36.98805 | 144.18416 | 26243 ft | 363 kts | 316° |
| 2026-05-04 08:13 | -36.96905 | 144.16340 | 26711 ft | 364 kts | 316° |
| 2026-05-04 08:13 | -36.94990 | 144.14249 | 27156 ft | 365 kts | 316° |
| 2026-05-04 08:13 | -36.93072 | 144.12156 | 27581 ft | 367 kts | 316° |
| 2026-05-04 08:13 | -36.91145 | 144.10054 | 28001 ft | 369 kts | 316° |
| 2026-05-04 08:14 | -36.89207 | 144.07943 | 28419 ft | 370 kts | 316° |
| 2026-05-04 08:14 | -36.87264 | 144.05826 | 28821 ft | 372 kts | 316° |
| 2026-05-04 08:14 | -36.85311 | 144.03699 | 29205 ft | 373 kts | 316° |
| 2026-05-04 08:16 | -36.72450 | 143.87393 | 31236 ft | 382 kts | 309° |
| 2026-05-04 08:16 | -36.70723 | 143.84860 | 31472 ft | 384 kts | 309° |
| 2026-05-04 08:16 | -36.68983 | 143.82333 | 31699 ft | 385 kts | 309° |
| 2026-05-04 08:17 | -36.67228 | 143.79802 | 31921 ft | 387 kts | 309° |
| 2026-05-04 08:17 | -36.65468 | 143.77279 | 32140 ft | 388 kts | 309° |
| 2026-05-04 08:17 | -36.63691 | 143.74741 | 32357 ft | 389 kts | 309° |
| 2026-05-04 08:17 | -36.61902 | 143.72191 | 32467 ft | 393 kts | 309° |
| 2026-05-04 08:19 | -36.49133 | 143.54074 | 33896 ft | 397 kts | 309° |
| 2026-05-04 08:19 | -36.47308 | 143.51494 | 33935 ft | 399 kts | 309° |
| 2026-05-04 08:20 | -36.43664 | 143.46347 | 33963 ft | 395 kts | 308° |
| 2026-05-04 08:20 | -36.40046 | 143.41244 | 33972 ft | 392 kts | 308° |
| 2026-05-04 08:21 | -36.36450 | 143.36179 | 33977 ft | 390 kts | 308° |
| 2026-05-04 08:21 | -36.32864 | 143.31135 | 33984 ft | 389 kts | 308° |
| 2026-05-04 08:22 | -36.29283 | 143.26106 | 33989 ft | 389 kts | 308° |
| 2026-05-04 08:24 | -36.14775 | 143.05805 | 34001 ft | 399 kts | 308° |
| 2026-05-04 08:24 | -36.11101 | 143.00685 | 33985 ft | 402 kts | 308° |
| 2026-05-04 08:25 | -36.07391 | 142.95525 | 33994 ft | 402 kts | 308° |
| 2026-05-04 08:25 | -36.03677 | 142.90364 | 34003 ft | 402 kts | 308° |
| 2026-05-04 08:27 | -35.88865 | 142.69863 | 34008 ft | 399 kts | 307° |
| 2026-05-04 08:28 | -35.85169 | 142.64765 | 34012 ft | 399 kts | 307° |
| 2026-05-04 08:28 | -35.81472 | 142.59674 | 34017 ft | 398 kts | 307° |
| 2026-05-04 08:29 | -35.77773 | 142.54586 | 34016 ft | 399 kts | 307° |
| 2026-05-04 08:31 | -35.62907 | 142.34235 | 34023 ft | 402 kts | 307° |
| 2026-05-04 08:33 | -35.47868 | 142.13762 | 34040 ft | 405 kts | 307° |
| 2026-05-04 08:35 | -35.32701 | 141.93238 | 34048 ft | 406 kts | 307° |
| 2026-05-04 08:35 | -35.28905 | 141.88122 | 34050 ft | 405 kts | 307° |
| 2026-05-04 08:37 | -35.15625 | 141.70278 | 34061 ft | 405 kts | 307° |
| 2026-05-04 08:38 | -35.11819 | 141.65182 | 34057 ft | 406 kts | 307° |
| 2026-05-04 08:38 | -35.08007 | 141.60083 | 34064 ft | 407 kts | 307° |
| 2026-05-04 08:40 | -34.92696 | 141.39687 | 34069 ft | 408 kts | 308° |
| 2026-05-04 08:41 | -34.88861 | 141.34597 | 34060 ft | 407 kts | 308° |
| 2026-05-04 08:41 | -34.85032 | 141.29520 | 34069 ft | 407 kts | 308° |
| 2026-05-04 08:42 | -34.81209 | 141.24458 | 34079 ft | 407 kts | 308° |
| 2026-05-04 08:42 | -34.77398 | 141.19418 | 34073 ft | 408 kts | 308° |
| 2026-05-04 08:43 | -34.73556 | 141.14346 | 34082 ft | 408 kts | 308° |
| 2026-05-04 08:43 | -34.69686 | 141.09244 | 34066 ft | 408 kts | 308° |
| 2026-05-04 08:44 | -34.65836 | 141.04177 | 34078 ft | 408 kts | 308° |
| 2026-05-04 08:46 | -34.50398 | 140.83930 | 34061 ft | 409 kts | 308° |
| 2026-05-04 08:46 | -34.46528 | 140.78875 | 34082 ft | 409 kts | 308° |
| 2026-05-04 08:47 | -34.42653 | 140.73818 | 34095 ft | 410 kts | 308° |
| 2026-05-04 08:47 | -34.38774 | 140.68764 | 34096 ft | 410 kts | 309° |
| 2026-05-04 08:48 | -34.34883 | 140.63702 | 34091 ft | 411 kts | 309° |
| 2026-05-04 08:48 | -34.30989 | 140.58644 | 34097 ft | 411 kts | 309° |
| 2026-05-04 08:49 | -34.27092 | 140.53589 | 34098 ft | 411 kts | 309° |
| 2026-05-04 08:50 | -34.13410 | 140.35899 | 34094 ft | 412 kts | 309° |
| 2026-05-04 08:51 | -34.09495 | 140.30855 | 34088 ft | 412 kts | 309° |
| 2026-05-04 08:51 | -34.05581 | 140.25818 | 34110 ft | 412 kts | 309° |
| 2026-05-04 08:52 | -34.01660 | 140.20779 | 34112 ft | 412 kts | 309° |
| 2026-05-04 08:52 | -33.97763 | 140.15779 | 34103 ft | 412 kts | 309° |
| 2026-05-04 08:54 | -33.82668 | 139.96477 | 34113 ft | 413 kts | 309° |
| 2026-05-04 08:55 | -33.78720 | 139.91447 | 34115 ft | 414 kts | 309° |
| 2026-05-04 08:55 | -33.74769 | 139.86420 | 34120 ft | 414 kts | 309° |
| 2026-05-04 09:01 | -33.32882 | 139.33825 | 34142 ft | 418 kts | 311° |
| 2026-05-04 09:01 | -33.28757 | 139.28911 | 34129 ft | 419 kts | 312° |
| 2026-05-04 09:02 | -33.24642 | 139.24000 | 34148 ft | 419 kts | 312° |
| 2026-05-04 09:02 | -33.20522 | 139.19077 | 34150 ft | 419 kts | 312° |
| 2026-05-04 09:03 | -33.16405 | 139.14160 | 34152 ft | 419 kts | 312° |
| 2026-05-04 09:03 | -33.12279 | 139.09238 | 34160 ft | 419 kts | 312° |
| 2026-05-04 09:04 | -33.08147 | 139.04317 | 34146 ft | 420 kts | 312° |
| 2026-05-04 09:04 | -33.04014 | 138.99401 | 34158 ft | 420 kts | 312° |
| 2026-05-04 09:05 | -32.99879 | 138.94490 | 34158 ft | 420 kts | 312° |
| 2026-05-04 09:05 | -32.95744 | 138.89586 | 34161 ft | 419 kts | 312° |
| 2026-05-04 09:06 | -32.91615 | 138.84696 | 34155 ft | 419 kts | 312° |
| 2026-05-04 09:08 | -32.75070 | 138.65170 | 34155 ft | 418 kts | 312° |
| 2026-05-04 09:08 | -32.70940 | 138.60313 | 34162 ft | 418 kts | 312° |
| 2026-05-04 09:09 | -32.66813 | 138.55464 | 34162 ft | 417 kts | 312° |
| 2026-05-04 09:09 | -32.62686 | 138.50623 | 34169 ft | 417 kts | 312° |
| 2026-05-04 09:10 | -32.58554 | 138.45784 | 34154 ft | 417 kts | 312° |
| 2026-05-04 09:10 | -32.54422 | 138.40950 | 34155 ft | 417 kts | 312° |
| 2026-05-04 09:11 | -32.50284 | 138.36116 | 34164 ft | 418 kts | 312° |
| 2026-05-04 09:11 | -32.46144 | 138.31287 | 34159 ft | 418 kts | 312° |
| 2026-05-04 09:12 | -32.41995 | 138.26454 | 34150 ft | 418 kts | 312° |
| 2026-05-04 09:14 | -32.25390 | 138.07176 | 34154 ft | 418 kts | 312° |
| 2026-05-04 09:14 | -32.21234 | 138.02367 | 34150 ft | 418 kts | 312° |
| 2026-05-04 09:15 | -32.17080 | 137.97567 | 34144 ft | 418 kts | 312° |
| 2026-05-04 09:15 | -32.12928 | 137.92776 | 34151 ft | 417 kts | 313° |
| 2026-05-04 09:17 | -31.94294 | 137.71354 | 34146 ft | 414 kts | 313° |
| 2026-05-04 09:18 | -31.90172 | 137.66631 | 34151 ft | 413 kts | 313° |
| 2026-05-04 09:18 | -31.86056 | 137.61923 | 34155 ft | 412 kts | 313° |
| 2026-05-04 09:19 | -31.81943 | 137.57223 | 34152 ft | 412 kts | 313° |
| 2026-05-04 09:19 | -31.77831 | 137.52532 | 34145 ft | 412 kts | 313° |
| 2026-05-04 09:20 | -31.73721 | 137.47849 | 34152 ft | 411 kts | 313° |
| 2026-05-04 09:20 | -31.69613 | 137.43173 | 34159 ft | 411 kts | 313° |
| 2026-05-04 09:21 | -31.65530 | 137.38533 | 34157 ft | 411 kts | 313° |
| 2026-05-04 09:21 | -31.61429 | 137.33877 | 34178 ft | 411 kts | 313° |
| 2026-05-04 09:22 | -31.57288 | 137.29183 | 34161 ft | 411 kts | 313° |
| 2026-05-04 09:22 | -31.53201 | 137.24556 | 34166 ft | 411 kts | 313° |
| 2026-05-04 09:23 | -31.49052 | 137.19865 | 34177 ft | 412 kts | 313° |
| 2026-05-04 09:23 | -31.44955 | 137.15238 | 34167 ft | 412 kts | 313° |
| 2026-05-04 09:25 | -31.28441 | 136.96648 | 34163 ft | 412 kts | 314° |
| 2026-05-04 09:26 | -31.24313 | 136.92016 | 34171 ft | 411 kts | 314° |
| 2026-05-04 09:26 | -31.20186 | 136.87390 | 34182 ft | 411 kts | 314° |
| 2026-05-04 09:27 | -31.16059 | 136.82770 | 34185 ft | 411 kts | 314° |
| 2026-05-04 09:27 | -31.11896 | 136.78191 | 34181 ft | 411 kts | 315° |
| 2026-05-04 09:28 | -31.07651 | 136.73716 | 34179 ft | 411 kts | 315° |
| 2026-05-04 09:28 | -31.03398 | 136.69257 | 34182 ft | 411 kts | 315° |
| 2026-05-04 09:29 | -30.99152 | 136.64793 | 34176 ft | 411 kts | 315° |
| 2026-05-04 09:29 | -30.94915 | 136.60330 | 34184 ft | 411 kts | 315° |
| 2026-05-04 09:30 | -30.90643 | 136.55833 | 34181 ft | 411 kts | 315° |
| 2026-05-04 09:30 | -30.86425 | 136.51397 | 34186 ft | 411 kts | 315° |
| 2026-05-04 09:31 | -30.82146 | 136.46903 | 34185 ft | 412 kts | 315° |
| 2026-05-04 09:31 | -30.77919 | 136.42469 | 34185 ft | 412 kts | 315° |
| 2026-05-04 09:32 | -30.73656 | 136.38004 | 34186 ft | 413 kts | 315° |
| 2026-05-04 09:34 | -30.56579 | 136.20169 | 34187 ft | 413 kts | 315° |
| 2026-05-04 09:34 | -30.52309 | 136.15724 | 34185 ft | 413 kts | 315° |
| 2026-05-04 09:35 | -30.48760 | 136.12033 | 34190 ft | 412 kts | 315° |
| 2026-05-04 09:35 | -30.44489 | 136.07596 | 34192 ft | 412 kts | 315° |
| 2026-05-04 09:37 | -30.27411 | 135.89910 | 34193 ft | 411 kts | 315° |
| 2026-05-04 09:38 | -30.23148 | 135.85508 | 34200 ft | 411 kts | 315° |
| 2026-05-04 09:38 | -30.18886 | 135.81114 | 34199 ft | 411 kts | 315° |
| 2026-05-04 09:39 | -30.14621 | 135.76720 | 34189 ft | 410 kts | 315° |
| 2026-05-04 09:39 | -30.10360 | 135.72338 | 34192 ft | 410 kts | 316° |
| 2026-05-04 09:40 | -30.06096 | 135.67955 | 34203 ft | 410 kts | 316° |
| 2026-05-04 09:40 | -30.01830 | 135.63578 | 34195 ft | 410 kts | 316° |
| 2026-05-04 09:42 | -29.84756 | 135.46108 | 34203 ft | 410 kts | 315° |
| 2026-05-04 09:43 | -29.80481 | 135.41747 | 34203 ft | 410 kts | 315° |
| 2026-05-04 09:43 | -29.76206 | 135.37391 | 34199 ft | 411 kts | 315° |
| 2026-05-04 09:44 | -29.71928 | 135.33037 | 34207 ft | 411 kts | 315° |
| 2026-05-04 09:46 | -29.54784 | 135.15640 | 34196 ft | 411 kts | 315° |
| 2026-05-04 09:46 | -29.50496 | 135.11303 | 34205 ft | 411 kts | 315° |
| 2026-05-04 09:47 | -29.46208 | 135.06969 | 34206 ft | 411 kts | 315° |
| 2026-05-04 09:49 | -29.29052 | 134.89682 | 34208 ft | 411 kts | 316° |
| 2026-05-04 09:51 | -29.13999 | 134.74580 | 34211 ft | 411 kts | 315° |
| 2026-05-04 09:51 | -29.09697 | 134.70275 | 34217 ft | 411 kts | 315° |
| 2026-05-04 09:52 | -29.05391 | 134.65971 | 34211 ft | 411 kts | 315° |
| 2026-05-04 09:52 | -29.01083 | 134.61669 | 34210 ft | 411 kts | 315° |
| 2026-05-04 09:53 | -28.96778 | 134.57374 | 34213 ft | 411 kts | 315° |
| 2026-05-04 09:53 | -28.92467 | 134.53085 | 34225 ft | 411 kts | 315° |
| 2026-05-04 09:54 | -28.88152 | 134.48802 | 34205 ft | 411 kts | 315° |
| 2026-05-04 09:54 | -28.83840 | 134.44526 | 34222 ft | 411 kts | 315° |
| 2026-05-04 09:55 | -28.79527 | 134.40252 | 34223 ft | 411 kts | 315° |
| 2026-05-04 09:55 | -28.75217 | 134.35985 | 34225 ft | 411 kts | 315° |
| 2026-05-04 09:56 | -28.70900 | 134.31716 | 34221 ft | 410 kts | 315° |
| 2026-05-04 09:56 | -28.66586 | 134.27454 | 34221 ft | 410 kts | 315° |
| 2026-05-04 09:57 | -28.62274 | 134.23199 | 34222 ft | 410 kts | 315° |
| 2026-05-04 09:57 | -28.57959 | 134.18946 | 34208 ft | 411 kts | 315° |
| 2026-05-04 09:58 | -28.53640 | 134.14694 | 34222 ft | 411 kts | 315° |
| 2026-05-04 09:58 | -28.49319 | 134.10445 | 34226 ft | 411 kts | 315° |
| 2026-05-04 10:00 | -28.32019 | 133.93480 | 34229 ft | 411 kts | 315° |
| 2026-05-04 10:04 | -28.01692 | 133.63923 | 34229 ft | 411 kts | 316° |
| 2026-05-04 10:04 | -27.97354 | 133.59713 | 34227 ft | 411 kts | 316° |
| 2026-05-04 10:05 | -27.93013 | 133.55506 | 34237 ft | 411 kts | 316° |
| 2026-05-04 10:05 | -27.88672 | 133.51303 | 34233 ft | 411 kts | 316° |
| 2026-05-04 10:06 | -27.84334 | 133.47107 | 34237 ft | 411 kts | 316° |
| 2026-05-04 10:06 | -27.79986 | 133.42906 | 34236 ft | 411 kts | 316° |
| 2026-05-04 10:08 | -27.64727 | 133.28201 | 34227 ft | 413 kts | 316° |
| 2026-05-04 10:08 | -27.60361 | 133.24004 | 34240 ft | 412 kts | 316° |
| 2026-05-04 10:09 | -27.56019 | 133.19834 | 34232 ft | 413 kts | 316° |
| 2026-05-04 10:09 | -27.51645 | 133.15638 | 34246 ft | 413 kts | 316° |
| 2026-05-04 10:10 | -27.47266 | 133.11442 | 34238 ft | 413 kts | 316° |
| 2026-05-04 10:10 | -27.42887 | 133.07250 | 34238 ft | 413 kts | 316° |
| 2026-05-04 10:11 | -27.38506 | 133.03061 | 34245 ft | 413 kts | 316° |
| 2026-05-04 10:11 | -27.34123 | 132.98874 | 34236 ft | 414 kts | 316° |
| 2026-05-04 10:12 | -27.29742 | 132.94695 | 34239 ft | 413 kts | 316° |
| 2026-05-04 10:12 | -27.25358 | 132.90516 | 34243 ft | 413 kts | 316° |
| 2026-05-04 10:13 | -27.20969 | 132.86337 | 34245 ft | 413 kts | 316° |
| 2026-05-04 10:13 | -27.16584 | 132.82166 | 34233 ft | 413 kts | 316° |
| 2026-05-04 10:14 | -27.12197 | 132.77998 | 34252 ft | 413 kts | 316° |
| 2026-05-04 10:16 | -26.94693 | 132.61409 | 34255 ft | 410 kts | 316° |
| 2026-05-04 10:16 | -26.91038 | 132.57958 | 34237 ft | 411 kts | 316° |
| 2026-05-04 10:17 | -26.86681 | 132.53857 | 34252 ft | 410 kts | 316° |
| 2026-05-04 10:19 | -26.69272 | 132.37508 | 34244 ft | 409 kts | 316° |
| 2026-05-04 10:19 | -26.64912 | 132.33423 | 34246 ft | 409 kts | 316° |
| 2026-05-04 10:20 | -26.60556 | 132.29345 | 34251 ft | 408 kts | 316° |
| 2026-05-04 10:20 | -26.56200 | 132.25272 | 34258 ft | 408 kts | 316° |
| 2026-05-04 10:21 | -26.51844 | 132.21203 | 34257 ft | 408 kts | 316° |
| 2026-05-04 10:21 | -26.47483 | 132.17133 | 34252 ft | 408 kts | 316° |
| 2026-05-04 10:22 | -26.40945 | 132.11040 | 34260 ft | 408 kts | 316° |
| 2026-05-04 10:23 | -26.36580 | 132.06977 | 34256 ft | 409 kts | 316° |
| 2026-05-04 10:25 | -26.19069 | 131.90720 | 34250 ft | 410 kts | 316° |
| 2026-05-04 10:25 | -26.14680 | 131.86655 | 34253 ft | 410 kts | 316° |
| 2026-05-04 10:26 | -26.10289 | 131.82593 | 34257 ft | 410 kts | 316° |
| 2026-05-04 10:26 | -26.05898 | 131.78535 | 34250 ft | 410 kts | 316° |
| 2026-05-04 10:27 | -26.01504 | 131.74478 | 34249 ft | 411 kts | 316° |
| 2026-05-04 10:27 | -25.97108 | 131.70423 | 34238 ft | 410 kts | 316° |
| 2026-05-04 10:28 | -25.92714 | 131.66375 | 34247 ft | 410 kts | 316° |
| 2026-05-04 10:28 | -25.88330 | 131.62339 | 34251 ft | 410 kts | 316° |
| 2026-05-04 10:29 | -25.83932 | 131.58295 | 34243 ft | 410 kts | 316° |
| 2026-05-04 10:29 | -25.79534 | 131.54254 | 34235 ft | 410 kts | 316° |
| 2026-05-04 10:30 | -25.75137 | 131.50219 | 34244 ft | 410 kts | 316° |
| 2026-05-04 10:30 | -25.70735 | 131.46183 | 34240 ft | 410 kts | 316° |
| 2026-05-04 10:31 | -25.66332 | 131.42150 | 34234 ft | 411 kts | 316° |
| 2026-05-04 10:32 | -25.50914 | 131.28059 | 34234 ft | 411 kts | 316° |
| 2026-05-04 10:33 | -25.46504 | 131.24038 | 34219 ft | 411 kts | 316° |
| 2026-05-04 10:33 | -25.42092 | 131.20018 | 34225 ft | 411 kts | 316° |
| 2026-05-04 10:34 | -25.37676 | 131.15999 | 34229 ft | 411 kts | 316° |
| 2026-05-04 10:34 | -25.33259 | 131.11983 | 34223 ft | 411 kts | 316° |
| 2026-05-04 10:35 | -25.28834 | 131.07963 | 34228 ft | 412 kts | 316° |
| 2026-05-04 10:35 | -25.24411 | 131.03949 | 34226 ft | 412 kts | 316° |
| 2026-05-04 10:36 | -25.19985 | 130.99935 | 34219 ft | 412 kts | 316° |
| 2026-05-04 10:36 | -25.15578 | 130.95897 | 34219 ft | 411 kts | 314° |
| 2026-05-04 10:37 | -25.11311 | 130.91700 | 34215 ft | 411 kts | 313° |
| 2026-05-04 10:37 | -25.07072 | 130.87472 | 34209 ft | 411 kts | 313° |
| 2026-05-04 10:39 | -24.92141 | 130.72762 | 34188 ft | 412 kts | 314° |
| 2026-05-04 10:40 | -24.87866 | 130.68573 | 34205 ft | 411 kts | 314° |
| 2026-05-04 10:40 | -24.83590 | 130.64385 | 34208 ft | 411 kts | 314° |
| 2026-05-04 10:41 | -24.79311 | 130.60198 | 34206 ft | 412 kts | 314° |
| 2026-05-04 10:41 | -24.75029 | 130.56013 | 34205 ft | 412 kts | 314° |
| 2026-05-04 10:42 | -24.70748 | 130.51833 | 34203 ft | 411 kts | 314° |
| 2026-05-04 10:42 | -24.66468 | 130.47657 | 34203 ft | 411 kts | 314° |
| 2026-05-04 10:43 | -24.62187 | 130.43484 | 34195 ft | 411 kts | 314° |
| 2026-05-04 10:45 | -24.45063 | 130.26833 | 34200 ft | 412 kts | 314° |
| 2026-05-04 10:45 | -24.40770 | 130.22668 | 34196 ft | 412 kts | 314° |
| 2026-05-04 10:46 | -24.36470 | 130.18500 | 34199 ft | 413 kts | 314° |
| 2026-05-04 10:46 | -24.32163 | 130.14331 | 34197 ft | 413 kts | 314° |
| 2026-05-04 10:47 | -24.27846 | 130.10155 | 34195 ft | 414 kts | 314° |
| 2026-05-04 10:47 | -24.23522 | 130.05976 | 34194 ft | 415 kts | 314° |
| 2026-05-04 10:49 | -24.06173 | 129.89250 | 34188 ft | 416 kts | 314° |
| 2026-05-04 10:50 | -24.01822 | 129.85065 | 34181 ft | 417 kts | 314° |
| 2026-05-04 10:52 | -23.84405 | 129.68352 | 34177 ft | 416 kts | 314° |
| 2026-05-04 10:52 | -23.80051 | 129.64183 | 34163 ft | 416 kts | 314° |
| 2026-05-04 10:54 | -23.62654 | 129.47566 | 34166 ft | 415 kts | 314° |
| 2026-05-04 10:56 | -23.45330 | 129.31079 | 34147 ft | 414 kts | 314° |
| 2026-05-04 10:57 | -23.40993 | 129.26960 | 34148 ft | 413 kts | 314° |
| 2026-05-04 10:57 | -23.36660 | 129.22849 | 34153 ft | 413 kts | 314° |
| 2026-05-04 10:58 | -23.32323 | 129.18739 | 34144 ft | 413 kts | 314° |
| 2026-05-04 10:58 | -23.28691 | 129.15299 | 34148 ft | 413 kts | 314° |
| 2026-05-04 10:59 | -23.24355 | 129.11196 | 34141 ft | 413 kts | 314° |
| 2026-05-04 10:59 | -23.20016 | 129.07094 | 34140 ft | 413 kts | 313° |
| 2026-05-04 11:00 | -23.15676 | 129.02993 | 34142 ft | 413 kts | 313° |
| 2026-05-04 11:02 | -22.98279 | 128.86594 | 34131 ft | 414 kts | 313° |
| 2026-05-04 11:05 | -22.65524 | 128.55903 | 34123 ft | 415 kts | 313° |
| 2026-05-04 11:06 | -22.61159 | 128.51828 | 34115 ft | 415 kts | 313° |
| 2026-05-04 11:06 | -22.56784 | 128.47747 | 34116 ft | 415 kts | 313° |
| 2026-05-04 11:10 | -22.26208 | 128.19321 | 34115 ft | 414 kts | 313° |
| 2026-05-04 11:12 | -22.08746 | 128.03163 | 34115 ft | 413 kts | 313° |
| 2026-05-04 11:12 | -22.04379 | 127.99131 | 34113 ft | 413 kts | 313° |
| 2026-05-04 11:13 | -22.00015 | 127.95105 | 34110 ft | 412 kts | 312° |
| 2026-05-04 11:13 | -21.95655 | 127.91086 | 34112 ft | 412 kts | 312° |
| 2026-05-04 11:14 | -21.91299 | 127.87073 | 34111 ft | 412 kts | 312° |
| 2026-05-04 11:16 | -21.73851 | 127.71038 | 34118 ft | 412 kts | 311° |
| 2026-05-04 11:16 | -21.69485 | 127.67032 | 34103 ft | 413 kts | 311° |
| 2026-05-04 11:17 | -21.65115 | 127.63027 | 34101 ft | 413 kts | 311° |
| 2026-05-04 11:19 | -21.47652 | 127.47058 | 34097 ft | 411 kts | 311° |
| 2026-05-04 11:19 | -21.43292 | 127.43078 | 34094 ft | 411 kts | 310° |
| 2026-05-04 11:20 | -21.38933 | 127.39103 | 34077 ft | 411 kts | 310° |
| 2026-05-04 11:20 | -21.34579 | 127.35136 | 34087 ft | 410 kts | 310° |
| 2026-05-04 11:22 | -21.17210 | 127.19341 | 34079 ft | 408 kts | 309° |
| 2026-05-04 11:23 | -21.12882 | 127.15413 | 34079 ft | 407 kts | 309° |
| 2026-05-04 11:25 | -20.97806 | 127.01754 | 34093 ft | 406 kts | 309° |
| 2026-05-04 11:25 | -20.93498 | 126.97859 | 34086 ft | 405 kts | 309° |
| 2026-05-04 11:27 | -20.74138 | 126.80386 | 34052 ft | 404 kts | 308° |
| 2026-05-04 11:28 | -20.69843 | 126.76519 | 34067 ft | 404 kts | 308° |
| 2026-05-04 11:28 | -20.65548 | 126.72654 | 34081 ft | 404 kts | 308° |
| 2026-05-04 11:29 | -20.61249 | 126.68788 | 34080 ft | 404 kts | 308° |
| 2026-05-04 11:29 | -20.56945 | 126.64920 | 34074 ft | 405 kts | 308° |
| 2026-05-04 11:33 | -20.26723 | 126.37848 | 34072 ft | 406 kts | 308° |
| 2026-05-04 11:33 | -20.22391 | 126.33979 | 34068 ft | 407 kts | 308° |
| 2026-05-04 11:34 | -20.18051 | 126.30106 | 34066 ft | 407 kts | 308° |
| 2026-05-04 11:34 | -20.13708 | 126.26232 | 34065 ft | 408 kts | 308° |
| 2026-05-04 11:35 | -20.09356 | 126.22354 | 34067 ft | 408 kts | 308° |
| 2026-05-04 11:35 | -20.05096 | 126.18416 | 34056 ft | 404 kts | 306° |
| 2026-05-04 11:36 | -20.00955 | 126.14378 | 34067 ft | 403 kts | 306° |
| 2026-05-04 11:36 | -19.96822 | 126.10343 | 34062 ft | 404 kts | 306° |
| 2026-05-04 11:37 | -19.92666 | 126.06313 | 34064 ft | 404 kts | 306° |
| 2026-05-04 11:37 | -19.88501 | 126.02291 | 34061 ft | 405 kts | 306° |
| 2026-05-04 11:38 | -19.84333 | 125.98274 | 34058 ft | 404 kts | 306° |
| 2026-05-04 11:38 | -19.80165 | 125.94261 | 34056 ft | 404 kts | 306° |
| 2026-05-04 11:39 | -19.76674 | 125.90901 | 34063 ft | 404 kts | 306° |
| 2026-05-04 11:41 | -19.62067 | 125.76868 | 34049 ft | 404 kts | 306° |
| 2026-05-04 11:41 | -19.57897 | 125.72869 | 34058 ft | 404 kts | 306° |
| 2026-05-04 11:42 | -19.53730 | 125.68874 | 34053 ft | 404 kts | 306° |
| 2026-05-04 11:42 | -19.49564 | 125.64884 | 34054 ft | 404 kts | 306° |
| 2026-05-04 11:43 | -19.45397 | 125.60895 | 34052 ft | 403 kts | 306° |
| 2026-05-04 11:43 | -19.41232 | 125.56912 | 34026 ft | 403 kts | 306° |
| 2026-05-04 11:44 | -19.37098 | 125.52961 | 34045 ft | 403 kts | 306° |
| 2026-05-04 11:44 | -19.32913 | 125.48964 | 34050 ft | 402 kts | 306° |
| 2026-05-04 11:45 | -19.28780 | 125.45020 | 34055 ft | 403 kts | 306° |
| 2026-05-04 11:45 | -19.24589 | 125.41022 | 34049 ft | 403 kts | 306° |
| 2026-05-04 11:46 | -19.20457 | 125.37085 | 34047 ft | 403 kts | 306° |
| 2026-05-04 11:46 | -19.16263 | 125.33091 | 34035 ft | 402 kts | 306° |
| 2026-05-04 11:47 | -19.12130 | 125.29157 | 34039 ft | 403 kts | 306° |
| 2026-05-04 11:47 | -19.07964 | 125.25195 | 34044 ft | 403 kts | 306° |
| 2026-05-04 11:48 | -19.03796 | 125.21234 | 34045 ft | 403 kts | 306° |
| 2026-05-04 11:48 | -18.99622 | 125.17270 | 34039 ft | 404 kts | 306° |
| 2026-05-04 11:49 | -18.95444 | 125.13304 | 34006 ft | 404 kts | 306° |
| 2026-05-04 11:49 | -18.91266 | 125.09344 | 34029 ft | 404 kts | 307° |
| 2026-05-04 11:50 | -18.87087 | 125.05383 | 34033 ft | 404 kts | 307° |
| 2026-05-04 11:50 | -18.82901 | 125.01418 | 34035 ft | 405 kts | 307° |
| 2026-05-04 11:51 | -18.78707 | 124.97450 | 34040 ft | 406 kts | 307° |
| 2026-05-04 11:51 | -18.74499 | 124.93469 | 34026 ft | 407 kts | 307° |
| 2026-05-04 11:52 | -18.70284 | 124.89486 | 34015 ft | 407 kts | 307° |
| 2026-05-04 11:52 | -18.66070 | 124.85507 | 34025 ft | 407 kts | 307° |
| 2026-05-04 11:53 | -18.61851 | 124.81527 | 34024 ft | 407 kts | 307° |
| 2026-05-04 11:53 | -18.57634 | 124.77551 | 34026 ft | 407 kts | 307° |
| 2026-05-04 11:55 | -18.40777 | 124.61681 | 34023 ft | 406 kts | 307° |
| 2026-05-04 11:56 | -18.36563 | 124.57720 | 34028 ft | 406 kts | 307° |
| 2026-05-04 11:56 | -18.32342 | 124.53756 | 34014 ft | 407 kts | 307° |
| 2026-05-04 11:57 | -18.28116 | 124.49790 | 34018 ft | 407 kts | 307° |
| 2026-05-04 11:57 | -18.23889 | 124.45825 | 33994 ft | 407 kts | 308° |
| 2026-05-04 11:58 | -18.19660 | 124.41862 | 34012 ft | 407 kts | 308° |
| 2026-05-04 11:58 | -18.15425 | 124.37895 | 34021 ft | 408 kts | 308° |
| 2026-05-04 11:59 | -18.11184 | 124.33925 | 34019 ft | 409 kts | 308° |
| 2026-05-04 11:59 | -18.06930 | 124.29946 | 34020 ft | 410 kts | 308° |
| 2026-05-04 12:00 | -18.02670 | 124.25964 | 34019 ft | 410 kts | 308° |
| 2026-05-04 12:00 | -17.98404 | 124.21979 | 34023 ft | 411 kts | 308° |
| 2026-05-04 12:01 | -17.94131 | 124.17991 | 34020 ft | 411 kts | 308° |
| 2026-05-04 12:02 | -17.79146 | 124.04024 | 34008 ft | 412 kts | 308° |
| 2026-05-04 12:03 | -17.74860 | 124.00036 | 33993 ft | 411 kts | 308° |
| 2026-05-04 12:03 | -17.70577 | 123.96051 | 33996 ft | 411 kts | 308° |
| 2026-05-04 12:04 | -17.66296 | 123.92072 | 33995 ft | 411 kts | 308° |
| 2026-05-04 12:04 | -17.62013 | 123.88092 | 33998 ft | 412 kts | 308° |
| 2026-05-04 12:05 | -17.57756 | 123.84085 | 34007 ft | 409 kts | 306° |
| 2026-05-04 12:05 | -17.53710 | 123.79910 | 34003 ft | 407 kts | 305° |
| 2026-05-04 12:06 | -17.49721 | 123.75697 | 33993 ft | 407 kts | 305° |
| 2026-05-04 12:06 | -17.45718 | 123.71495 | 33998 ft | 408 kts | 306° |
| 2026-05-04 12:07 | -17.41699 | 123.67301 | 33997 ft | 408 kts | 306° |
| 2026-05-04 12:07 | -17.37667 | 123.63107 | 33999 ft | 409 kts | 306° |
| 2026-05-04 12:08 | -17.33657 | 123.58943 | 33998 ft | 409 kts | 306° |
| 2026-05-04 12:08 | -17.29614 | 123.54746 | 33997 ft | 409 kts | 306° |
| 2026-05-04 12:09 | -17.25541 | 123.50522 | 33989 ft | 409 kts | 306° |
| 2026-05-04 12:09 | -17.21493 | 123.46326 | 33995 ft | 410 kts | 306° |
| 2026-05-04 12:10 | -17.17439 | 123.42126 | 33994 ft | 410 kts | 306° |
| 2026-05-04 12:10 | -17.13382 | 123.37924 | 33995 ft | 411 kts | 306° |
| 2026-05-04 12:11 | -17.09315 | 123.33717 | 33997 ft | 411 kts | 306° |
| 2026-05-04 12:11 | -17.05247 | 123.29511 | 33994 ft | 412 kts | 306° |
| 2026-05-04 12:12 | -17.01178 | 123.25307 | 34000 ft | 411 kts | 307° |
| 2026-05-04 12:12 | -16.97104 | 123.21100 | 33991 ft | 412 kts | 307° |
| 2026-05-04 12:14 | -16.80755 | 123.04244 | 33990 ft | 414 kts | 307° |
| 2026-05-04 12:15 | -16.76660 | 123.00029 | 33977 ft | 414 kts | 307° |
| 2026-05-04 12:15 | -16.72558 | 122.95810 | 33989 ft | 414 kts | 307° |
| 2026-05-04 12:16 | -16.68457 | 122.91595 | 33990 ft | 414 kts | 307° |
| 2026-05-04 12:16 | -16.64348 | 122.87373 | 33981 ft | 415 kts | 307° |
| 2026-05-04 12:17 | -16.60235 | 122.83150 | 33983 ft | 415 kts | 307° |
| 2026-05-04 12:17 | -16.56120 | 122.78928 | 33990 ft | 415 kts | 307° |
| 2026-05-04 12:18 | -16.52004 | 122.74708 | 33976 ft | 415 kts | 308° |
| 2026-05-04 12:18 | -16.47887 | 122.70489 | 33984 ft | 415 kts | 308° |
| 2026-05-04 12:19 | -16.43767 | 122.66270 | 33983 ft | 415 kts | 308° |
| 2026-05-04 12:19 | -16.40341 | 122.62763 | 33984 ft | 416 kts | 308° |
| 2026-05-04 12:20 | -16.36215 | 122.58542 | 33986 ft | 416 kts | 308° |
| 2026-05-04 12:20 | -16.32078 | 122.54313 | 33984 ft | 416 kts | 308° |
| 2026-05-04 12:21 | -16.27942 | 122.50087 | 33968 ft | 417 kts | 308° |
| 2026-05-04 12:21 | -16.23802 | 122.45861 | 33983 ft | 417 kts | 308° |
| 2026-05-04 12:22 | -16.19659 | 122.41634 | 33983 ft | 417 kts | 308° |
| 2026-05-04 12:22 | -16.15512 | 122.37405 | 33985 ft | 418 kts | 308° |
| 2026-05-04 12:23 | -16.11357 | 122.33171 | 33984 ft | 418 kts | 308° |
| 2026-05-04 12:23 | -16.07199 | 122.28936 | 33984 ft | 419 kts | 308° |
| 2026-05-04 12:24 | -16.03039 | 122.24702 | 33973 ft | 419 kts | 308° |
| 2026-05-04 12:24 | -15.98873 | 122.20464 | 33985 ft | 419 kts | 308° |
| 2026-05-04 12:25 | -15.94713 | 122.16236 | 33985 ft | 419 kts | 308° |
| 2026-05-04 12:25 | -15.90543 | 122.11999 | 33984 ft | 419 kts | 308° |
| 2026-05-04 12:26 | -15.86372 | 122.07763 | 33986 ft | 420 kts | 308° |
| 2026-05-04 12:26 | -15.82202 | 122.03533 | 33987 ft | 419 kts | 308° |
| 2026-05-04 12:27 | -15.78029 | 121.99301 | 33983 ft | 420 kts | 309° |
| 2026-05-04 12:27 | -15.73852 | 121.95068 | 33980 ft | 419 kts | 309° |
| 2026-05-04 12:28 | -15.69685 | 121.90847 | 33985 ft | 419 kts | 309° |
| 2026-05-04 12:28 | -15.65505 | 121.86616 | 33986 ft | 420 kts | 309° |
| 2026-05-04 12:29 | -15.61326 | 121.82388 | 33986 ft | 420 kts | 309° |
| 2026-05-04 12:29 | -15.57147 | 121.78163 | 33985 ft | 420 kts | 309° |
| 2026-05-04 12:30 | -15.52964 | 121.73937 | 33984 ft | 420 kts | 309° |
| 2026-05-04 12:30 | -15.48780 | 121.69712 | 33986 ft | 420 kts | 309° |
| 2026-05-04 12:31 | -15.44594 | 121.65487 | 33983 ft | 420 kts | 309° |
| 2026-05-04 12:31 | -15.40411 | 121.61268 | 33983 ft | 420 kts | 309° |
| 2026-05-04 12:32 | -15.34133 | 121.54941 | 33988 ft | 419 kts | 309° |
| 2026-05-04 12:33 | -15.29952 | 121.50730 | 33982 ft | 419 kts | 309° |
| 2026-05-04 12:33 | -15.25771 | 121.46522 | 33965 ft | 419 kts | 309° |
| 2026-05-04 12:34 | -15.21592 | 121.42318 | 33984 ft | 419 kts | 309° |
| 2026-05-04 12:34 | -15.17417 | 121.38120 | 33985 ft | 419 kts | 309° |
| 2026-05-04 12:35 | -15.13233 | 121.33916 | 33992 ft | 419 kts | 309° |
| 2026-05-04 12:35 | -15.09045 | 121.29710 | 33983 ft | 420 kts | 309° |
| 2026-05-04 12:36 | -15.04854 | 121.25504 | 33985 ft | 420 kts | 309° |
| 2026-05-04 12:36 | -15.00668 | 121.21305 | 33995 ft | 420 kts | 309° |
| 2026-05-04 12:37 | -14.96476 | 121.17103 | 33982 ft | 420 kts | 309° |
| 2026-05-04 12:37 | -14.92281 | 121.12900 | 33986 ft | 420 kts | 309° |
| 2026-05-04 12:38 | -14.88084 | 121.08698 | 33984 ft | 420 kts | 309° |
| 2026-05-04 12:38 | -14.83887 | 121.04498 | 33983 ft | 420 kts | 309° |
| 2026-05-04 12:39 | -14.79682 | 121.00292 | 33986 ft | 420 kts | 310° |
| 2026-05-04 12:39 | -14.75477 | 120.96089 | 33990 ft | 421 kts | 310° |
| 2026-05-04 12:40 | -14.71271 | 120.91887 | 33976 ft | 421 kts | 310° |
| 2026-05-04 12:40 | -14.67066 | 120.87689 | 33986 ft | 420 kts | 310° |
| 2026-05-04 12:41 | -14.62860 | 120.83491 | 33987 ft | 421 kts | 310° |
| 2026-05-04 12:41 | -14.58648 | 120.79290 | 33983 ft | 421 kts | 310° |
| 2026-05-04 12:42 | -14.54439 | 120.75094 | 33983 ft | 421 kts | 310° |
| 2026-05-04 12:42 | -14.50231 | 120.70903 | 33985 ft | 421 kts | 310° |
| 2026-05-04 12:43 | -14.46016 | 120.66706 | 33970 ft | 421 kts | 310° |
| 2026-05-04 12:43 | -14.41808 | 120.62518 | 33983 ft | 421 kts | 310° |
| 2026-05-04 12:44 | -14.37585 | 120.58319 | 33986 ft | 422 kts | 310° |
| 2026-05-04 12:44 | -14.33357 | 120.54116 | 33984 ft | 422 kts | 310° |
| 2026-05-04 12:45 | -14.29124 | 120.49910 | 33986 ft | 423 kts | 310° |
| 2026-05-04 12:45 | -14.24884 | 120.45700 | 33987 ft | 423 kts | 310° |
| 2026-05-04 12:46 | -14.20640 | 120.41489 | 33984 ft | 424 kts | 310° |
| 2026-05-04 12:46 | -14.16388 | 120.37272 | 33982 ft | 424 kts | 310° |
| 2026-05-04 12:47 | -14.12138 | 120.33058 | 33979 ft | 424 kts | 310° |
| 2026-05-04 12:47 | -14.07884 | 120.28845 | 33980 ft | 424 kts | 310° |
| 2026-05-04 12:48 | -14.03636 | 120.24638 | 33978 ft | 423 kts | 310° |
| 2026-05-04 12:48 | -13.99391 | 120.20437 | 33977 ft | 423 kts | 310° |
| 2026-05-04 12:49 | -13.95153 | 120.16246 | 33980 ft | 422 kts | 310° |
| 2026-05-04 12:49 | -13.90920 | 120.12061 | 33969 ft | 422 kts | 310° |
| 2026-05-04 12:50 | -13.86686 | 120.07877 | 33985 ft | 422 kts | 310° |
| 2026-05-04 12:50 | -13.82452 | 120.03695 | 33981 ft | 422 kts | 310° |
| 2026-05-04 12:51 | -13.78213 | 119.99511 | 33982 ft | 423 kts | 311° |
| 2026-05-04 12:51 | -13.73968 | 119.95323 | 33981 ft | 423 kts | 311° |
| 2026-05-04 12:52 | -13.69727 | 119.91141 | 33978 ft | 423 kts | 311° |
| 2026-05-04 12:52 | -13.65474 | 119.86951 | 33978 ft | 423 kts | 311° |
| 2026-05-04 12:53 | -13.61222 | 119.82763 | 33976 ft | 423 kts | 311° |
| 2026-05-04 12:53 | -13.56965 | 119.78572 | 33982 ft | 424 kts | 311° |
| 2026-05-04 12:54 | -13.52706 | 119.74381 | 33978 ft | 424 kts | 311° |
| 2026-05-04 12:54 | -13.48441 | 119.70187 | 33978 ft | 424 kts | 311° |
| 2026-05-04 12:55 | -13.44173 | 119.65992 | 33978 ft | 425 kts | 311° |
| 2026-05-04 12:55 | -13.39905 | 119.61800 | 33978 ft | 425 kts | 311° |
| 2026-05-04 12:56 | -13.35639 | 119.57611 | 33967 ft | 425 kts | 311° |
| 2026-05-04 12:56 | -13.31370 | 119.53421 | 33979 ft | 425 kts | 311° |
| 2026-05-04 12:57 | -13.27096 | 119.49229 | 33977 ft | 425 kts | 311° |
| 2026-05-04 12:57 | -13.22821 | 119.45038 | 33974 ft | 425 kts | 311° |
| 2026-05-04 12:58 | -13.18544 | 119.40847 | 33975 ft | 425 kts | 311° |
| 2026-05-04 12:58 | -13.14266 | 119.36658 | 33975 ft | 425 kts | 311° |
| 2026-05-04 12:59 | -13.09988 | 119.32470 | 33975 ft | 425 kts | 312° |
| 2026-05-04 12:59 | -13.05712 | 119.28286 | 33968 ft | 425 kts | 312° |
| 2026-05-04 13:00 | -13.02159 | 119.24812 | 33977 ft | 425 kts | 312° |
| 2026-05-04 13:00 | -12.97878 | 119.20627 | 33980 ft | 425 kts | 312° |
| 2026-05-04 13:01 | -12.93597 | 119.16445 | 33978 ft | 425 kts | 312° |
| 2026-05-04 13:01 | -12.89317 | 119.12265 | 33974 ft | 425 kts | 312° |
| 2026-05-04 13:02 | -12.85034 | 119.08085 | 33973 ft | 425 kts | 312° |
| 2026-05-04 13:02 | -12.80753 | 119.03909 | 33972 ft | 425 kts | 312° |
| 2026-05-04 13:03 | -12.76472 | 118.99734 | 33973 ft | 425 kts | 312° |
| 2026-05-04 13:03 | -12.72192 | 118.95563 | 33971 ft | 425 kts | 312° |
| 2026-05-04 13:04 | -12.67919 | 118.91401 | 33972 ft | 424 kts | 312° |
| 2026-05-04 13:04 | -12.63642 | 118.87237 | 33972 ft | 424 kts | 312° |
| 2026-05-04 13:05 | -12.59369 | 118.83078 | 33972 ft | 424 kts | 312° |
| 2026-05-04 13:05 | -12.55102 | 118.78928 | 33972 ft | 423 kts | 312° |
| 2026-05-04 13:06 | -12.50831 | 118.74776 | 33964 ft | 423 kts | 313° |
| 2026-05-04 13:06 | -12.46561 | 118.70626 | 33973 ft | 423 kts | 313° |
| 2026-05-04 13:07 | -12.42286 | 118.66473 | 33971 ft | 424 kts | 313° |
| 2026-05-04 13:07 | -12.38005 | 118.62317 | 33973 ft | 425 kts | 313° |
| 2026-05-04 13:08 | -12.33717 | 118.58155 | 33973 ft | 425 kts | 313° |
| 2026-05-04 13:08 | -12.29424 | 118.53992 | 33972 ft | 425 kts | 313° |
| 2026-05-04 13:09 | -12.25130 | 118.49830 | 33966 ft | 425 kts | 313° |
| 2026-05-04 13:09 | -12.20839 | 118.45671 | 33959 ft | 425 kts | 313° |
| 2026-05-04 13:10 | -12.16546 | 118.41513 | 33970 ft | 425 kts | 313° |
| 2026-05-04 13:10 | -12.12250 | 118.37353 | 33966 ft | 426 kts | 313° |
| 2026-05-04 13:11 | -12.07951 | 118.33193 | 33971 ft | 426 kts | 313° |
| 2026-05-04 13:11 | -12.03653 | 118.29034 | 33965 ft | 426 kts | 313° |
| 2026-05-04 13:12 | -11.99354 | 118.24878 | 33967 ft | 425 kts | 313° |
| 2026-05-04 13:12 | -11.95057 | 118.20729 | 33967 ft | 425 kts | 313° |
| 2026-05-04 13:13 | -11.90767 | 118.16586 | 33964 ft | 425 kts | 314° |
| 2026-05-04 13:13 | -11.86475 | 118.12443 | 33969 ft | 425 kts | 314° |
| 2026-05-04 13:14 | -11.82179 | 118.08296 | 33968 ft | 425 kts | 314° |
| 2026-05-04 13:14 | -11.77875 | 118.04144 | 33971 ft | 426 kts | 314° |
| 2026-05-04 13:15 | -11.73571 | 117.99994 | 33968 ft | 426 kts | 314° |
| 2026-05-04 13:15 | -11.69294 | 117.95871 | 33968 ft | 425 kts | 314° |
| 2026-05-04 13:16 | -11.64995 | 117.91730 | 33958 ft | 425 kts | 314° |
| 2026-05-04 13:16 | -11.60699 | 117.87594 | 33959 ft | 425 kts | 314° |
| 2026-05-04 13:17 | -11.56375 | 117.83431 | 33967 ft | 424 kts | 314° |
| 2026-05-04 13:17 | -11.52110 | 117.79328 | 33963 ft | 424 kts | 314° |
| 2026-05-04 13:18 | -11.47815 | 117.75197 | 33969 ft | 424 kts | 314° |
| 2026-05-04 13:18 | -11.43518 | 117.71067 | 33966 ft | 425 kts | 314° |
| 2026-05-04 13:19 | -11.39219 | 117.66935 | 33964 ft | 425 kts | 314° |
| 2026-05-04 13:19 | -11.34890 | 117.62778 | 33960 ft | 425 kts | 314° |
| 2026-05-04 13:20 | -11.30625 | 117.58684 | 33962 ft | 425 kts | 314° |
| 2026-05-04 13:20 | -11.26316 | 117.54549 | 33961 ft | 426 kts | 314° |
| 2026-05-04 13:21 | -11.22006 | 117.50415 | 33963 ft | 426 kts | 314° |
| 2026-05-04 13:21 | -11.17667 | 117.46254 | 33958 ft | 426 kts | 314° |
| 2026-05-04 13:22 | -11.13352 | 117.42119 | 33961 ft | 426 kts | 314° |
| 2026-05-04 13:22 | -11.09076 | 117.38023 | 33962 ft | 425 kts | 314° |
| 2026-05-04 13:23 | -11.04766 | 117.33896 | 33953 ft | 425 kts | 314° |
| 2026-05-04 13:23 | -11.00463 | 117.29777 | 33965 ft | 424 kts | 314° |
| 2026-05-04 13:24 | -10.96163 | 117.25664 | 33960 ft | 424 kts | 314° |
| 2026-05-04 13:24 | -10.91861 | 117.21549 | 33960 ft | 424 kts | 314° |
| 2026-05-04 13:25 | -10.85414 | 117.15386 | 33965 ft | 425 kts | 314° |
| 2026-05-04 13:25 | -10.81104 | 117.11269 | 33959 ft | 425 kts | 314° |
| 2026-05-04 13:26 | -10.76798 | 117.07157 | 33962 ft | 425 kts | 314° |
| 2026-05-04 13:26 | -10.72499 | 117.03054 | 33962 ft | 424 kts | 314° |
| 2026-05-04 13:27 | -10.68201 | 116.98952 | 33955 ft | 424 kts | 315° |
| 2026-05-04 13:27 | -10.63906 | 116.94856 | 33964 ft | 423 kts | 315° |
| 2026-05-04 13:28 | -10.59616 | 116.90766 | 33961 ft | 423 kts | 314° |
| 2026-05-04 13:28 | -10.55323 | 116.86675 | 33959 ft | 423 kts | 315° |
| 2026-05-04 13:29 | -10.51037 | 116.82592 | 33962 ft | 422 kts | 314° |
| 2026-05-04 13:29 | -10.46752 | 116.78511 | 33956 ft | 422 kts | 314° |
| 2026-05-04 13:30 | -10.42467 | 116.74432 | 33963 ft | 422 kts | 315° |
| 2026-05-04 13:30 | -10.38183 | 116.70356 | 33959 ft | 422 kts | 314° |
| 2026-05-04 13:31 | -10.33901 | 116.66284 | 33956 ft | 422 kts | 315° |
| 2026-05-04 13:31 | -10.29620 | 116.62213 | 33959 ft | 422 kts | 314° |
| 2026-05-04 13:32 | -10.25334 | 116.58140 | 33958 ft | 422 kts | 314° |
| 2026-05-04 13:32 | -10.21054 | 116.54074 | 33957 ft | 421 kts | 315° |
| 2026-05-04 13:33 | -10.16774 | 116.50010 | 33955 ft | 421 kts | 315° |
| 2026-05-04 13:33 | -10.12499 | 116.45952 | 33952 ft | 421 kts | 314° |
| 2026-05-04 13:34 | -10.08226 | 116.41897 | 33953 ft | 421 kts | 315° |
| 2026-05-04 13:34 | -10.03950 | 116.37841 | 33962 ft | 421 kts | 314° |
| 2026-05-04 13:35 | -9.97536 | 116.31759 | 33953 ft | 421 kts | 314° |
| 2026-05-04 13:36 | -9.93253 | 116.27701 | 33956 ft | 421 kts | 315° |
| 2026-05-04 13:36 | -9.88970 | 116.23643 | 33961 ft | 421 kts | 315° |
| 2026-05-04 13:37 | -9.84686 | 116.19587 | 33949 ft | 421 kts | 315° |
| 2026-05-04 13:37 | -9.80407 | 116.15536 | 33951 ft | 420 kts | 314° |
| 2026-05-04 13:38 | -9.76140 | 116.11499 | 33951 ft | 419 kts | 314° |
| 2026-05-04 13:38 | -9.71903 | 116.07491 | 33950 ft | 419 kts | 315° |
| 2026-05-04 13:39 | -9.67642 | 116.03462 | 33954 ft | 419 kts | 314° |
| 2026-05-04 13:39 | -9.63390 | 115.99443 | 33953 ft | 419 kts | 314° |
| 2026-05-04 13:40 | -9.59132 | 115.95419 | 33952 ft | 419 kts | 315° |
| 2026-05-04 13:40 | -9.54883 | 115.91406 | 33959 ft | 419 kts | 315° |
| 2026-05-04 13:41 | -9.50618 | 115.87379 | 33945 ft | 419 kts | 314° |
| 2026-05-04 13:41 | -9.46352 | 115.83353 | 33951 ft | 419 kts | 315° |
| 2026-05-04 13:42 | -9.39945 | 115.77308 | 33950 ft | 421 kts | 314° |
| 2026-05-04 13:42 | -9.36383 | 115.73948 | 33950 ft | 421 kts | 315° |
| 2026-05-04 13:43 | -9.32098 | 115.69909 | 33945 ft | 421 kts | 315° |
| 2026-05-04 13:43 | -9.27814 | 115.65872 | 33954 ft | 421 kts | 315° |
| 2026-05-04 13:44 | -9.23513 | 115.61820 | 33944 ft | 421 kts | 315° |
| 2026-05-04 13:44 | -9.19256 | 115.57811 | 33945 ft | 421 kts | 316° |
| 2026-05-04 13:45 | -9.14970 | 115.53775 | 33951 ft | 421 kts | 315° |
| 2026-05-04 13:45 | -9.10680 | 115.49738 | 33952 ft | 421 kts | 315° |
| 2026-05-04 13:46 | -9.06388 | 115.45700 | 33944 ft | 422 kts | 316° |
| 2026-05-04 13:46 | -9.02090 | 115.41658 | 33946 ft | 422 kts | 315° |
| 2026-05-04 13:47 | -8.97803 | 115.37628 | 33944 ft | 421 kts | 315° |
| 2026-05-04 13:47 | -8.93505 | 115.33587 | 33950 ft | 421 kts | 315° |
| 2026-05-04 13:48 | -8.89223 | 115.29564 | 33938 ft | 421 kts | 315° |
| 2026-05-04 13:48 | -8.84933 | 115.25534 | 33939 ft | 421 kts | 316° |
| 2026-05-04 13:49 | -8.80637 | 115.21500 | 33937 ft | 422 kts | 316° |
| 2026-05-04 13:49 | -8.76332 | 115.17460 | 33939 ft | 423 kts | 316° |
| 2026-05-04 13:50 | -8.71505 | 115.14055 | 33948 ft | 425 kts | 328° |
| 2026-05-04 13:50 | -8.66371 | 115.11101 | 33944 ft | 425 kts | 329° |
| 2026-05-04 13:51 | -8.61225 | 115.08143 | 33945 ft | 425 kts | 329° |